Αναφορές Αεροδρομίων

 

KSJC - San Jose, California, USA
Distance from station: ΒΑ 14km
Ενημερώθηκε: 19/04/2021 14:53
Αίθριος
Αίθριος
 Ανεμος από Β
Ανεμος: Β 6 km/h
Θερμοκρασία: 11°C
Σημείο Δρόσου: 8°C
Υγρασία: 82%
Βαρόμετρο: 1020 hPa
Clouds: Αίθριος
Visibility: 16 km
2021/04/19 11:53 KSJC 191153Z AUTO 35003KT 10SM CLR 11/08 A3012 RMK AO2 SLP198 T01110078 10133 20100 53003 $
KNUQ - Moffett Nas/Mtn, California, USA
Distance from station: Β 14km
Ενημερώθηκε: 14/04/2021 01:40
NOT Current

 
2021/04/13 22:40 KNUQ 132240Z AUTO RMK AO2 PNO PWINO TSNO
 
KPAO - Palo Alto, California, USA
Distance from station: ΒΒΔ 23km
Ενημερώθηκε: 19/04/2021 06:47
NOT Current
Αίθριος
Αίθριος
 Ανεμος από ΒΒΔ
Ανεμος: ΒΒΔ 13 km/h
Θερμοκρασία: 13°C
Σημείο Δρόσου: 9°C
Υγρασία: 77%
Βαρόμετρο: 1019.3 hPa
Clouds: Αίθριος
Visibility: 16 km
2021/04/19 03:47 KPAO 190347Z 33007KT 10SM SKC 13/09 A3010 RMK LAST
KRHV - San Jose/Reid, California, USA
Distance from station: ΑΒΑ 19km
Ενημερώθηκε: 19/04/2021 07:55
NOT Current
Αίθριος
Αίθριος
 Ανεμος από ΒΔ
Ανεμος: ΒΔ 6 km/h
Θερμοκρασία: 16°C
Σημείο Δρόσου: 8°C
Υγρασία: 59%
Βαρόμετρο: 1019.6 hPa
Clouds: Αίθριος
Visibility: 16 km
2021/04/19 04:55 KRHV 190455Z 31003KT 10SM SKC 16/08 A3011
 
KOAK - Oakland, California, USA
Distance from station: ΒΒΔ 50km
Ενημερώθηκε: 19/04/2021 14:53
Συννεφιά
Συννεφιά
 Ανεμος από ΝΝΔ
Ανεμος: ΝΝΔ 6 km/h
Θερμοκρασία: 11°C
Σημείο Δρόσου: 8°C
Υγρασία: 82%
Βαρόμετρο: 1020.3 hPa
Clouds: Συννεφιά
Visibility: 16 km
Cloud details: Συννεφιά 274 m
2021/04/19 11:53 KOAK 191153Z 21003KT 10SM OVC009 11/08 A3013 RMK AO2 SLP201 T01060083 10122 20100 50003
KSQL - San Carlos Airpo, California, USA
Distance from station: ΒΔ 34km
Ενημερώθηκε: 19/04/2021 14:55
Αίθριος
Αίθριος
 Ανεμος από calm
Ανεμος: Απνοια
Θερμοκρασία: 10°C
Σημείο Δρόσου: 7°C
Υγρασία: 82%
Βαρόμετρο: 1020 hPa
Clouds: Αίθριος
Visibility: 16 km
2021/04/19 11:55 KSQL 191155Z AUTO 00000KT 10SM CLR 10/07 A3012 RMK AO2
 
KSFO - San Francisco, California, USA
Distance from station: ΒΔ 49km
Ενημερώθηκε: 19/04/2021 14:56
Σχεδόν νεφελώδης
Σχεδόν νεφελώδης
 Ανεμος από ΔΒΔ
Ανεμος: ΔΒΔ 20 km/h
Θερμοκρασία: 11°C
Σημείο Δρόσου: 7°C
Υγρασία: 77%
Βαρόμετρο: 1020 hPa
Clouds: Σχεδόν νεφελώδης
Visibility: 16 km
Cloud details: Μερικώς νεφελώδης 244 m
Σχεδόν νεφελώδης 335 m
2021/04/19 11:56 KSFO 191156Z 29011KT 10SM SCT008 BKN011 11/07 A3012 RMK AO2 SLP198 T01060072 10128 20100 51002 $
KE16 - San Martin, California, USA
Distance from station: ΑΝΑ 43km
Ενημερώθηκε: 19/04/2021 14:55
Αίθριος
Αίθριος
 Ανεμος από calm
Ανεμος: Απνοια
Θερμοκρασία: 8°C
Σημείο Δρόσου: 5°C
Υγρασία: 82%
Βαρόμετρο: 1020.7 hPa
Clouds: Αίθριος
Visibility: 16 km
2021/04/19 11:55 KE16 191155Z AUTO 00000KT 10SM CLR 08/05 A3014 RMK AO2
 
KWVI - Watsonville, California, USA
Distance from station: ΝΝΑ 44km
Ενημερώθηκε: 19/04/2021 14:53
Συννεφιά
Συννεφιά
 Ανεμος από ΝΑ
Ανεμος: ΝΑ 7 km/h
Θερμοκρασία: 8°C
Wind Chill: 7°C
Σημείο Δρόσου: 8°C
Υγρασία: 100%
Βαρόμετρο: 1020.7 hPa
Clouds: Συννεφιά
Visibility: 11 km
Cloud details: Συννεφιά 122 m
2021/04/19 11:53 KWVI 191153Z AUTO 14004KT 7SM OVC004 08/08 A3014 RMK AO2 SLP204 T00830078 10094 20083 55000
KHAF - Half Moon Bay, California, USA
Distance from station: ΔΒΔ 50km
Ενημερώθηκε: 19/04/2021 14:55
Mist, Συννεφιά
Mist, Συννεφιά
 Ανεμος από ΒΔ
Ανεμος: ΒΔ 11 km/h
Θερμοκρασία: 9°C
Wind Chill: 7°C
Σημείο Δρόσου: 8°C
Υγρασία: 94%
Βαρόμετρο: 1021 hPa
Περίληψη: Mist
Clouds: Συννεφιά
Visibility: 8 km
Cloud details: Συννεφιά 244 m
2021/04/19 11:55 KHAF 191155Z AUTO 32006KT 5SM BR OVC008 09/08 A3015 RMK AO2
 
KHWD - Hayward, California, USA
Distance from station: Β 44km
Ενημερώθηκε: 19/04/2021 14:54
Σχεδόν νεφελώδης
Σχεδόν νεφελώδης
 Ανεμος από ΒΔ
Ανεμος: ΒΔ 7 km/h
Θερμοκρασία: 10°C
Wind Chill: 9°C
Σημείο Δρόσου: 8°C
Υγρασία: 88%
Βαρόμετρο: 1020 hPa
Clouds: Σχεδόν νεφελώδης
Visibility: 16 km
Cloud details: Σχεδόν νεφελώδης 274 m
2021/04/19 11:54 KHWD 191154Z AUTO 31004KT 10SM BKN009 10/08 A3012 RMK AO2 SLP208 T01000078 10122 20094 53002
KLVK - Livermore, California, USA
Distance from station: ΒΒΑ 51km
Ενημερώθηκε: 19/04/2021 14:53
Αίθριος
Αίθριος
 Ανεμος από ΔΒΔ
Ανεμος: ΔΒΔ 9 km/h
Θερμοκρασία: 10°C
Wind Chill: 9°C
Σημείο Δρόσου: 7°C
Υγρασία: 82%
Βαρόμετρο: 1019 hPa
Clouds: Αίθριος
Visibility: 16 km
2021/04/19 11:53 KLVK 191153Z AUTO 29005KT 10SM CLR 10/07 A3009 RMK AO2 SLP184 T01000067 10167 20100 53001